Time;durP1;ratioP1;P1;durP2;ratioP2;P2;SDS_P1;SDS_P2;PMS_P1;PMS_P2;Temp;Humidity;BMP_temperature;BMP_pressure;BME280_temperature;BME280_humidity;BME280_pressure;Samples;Min_cycle;Max_cycle;Signal;HPM_P1;HPM_P2
2021/07/24 03:01:07;;;;;;;;;;;19.20;99.90;;;;;;5;36054098;39810854;-85
2021/07/24 03:04:17;;;;;;;;;;;19.20;99.90;;;;;;5;36014480;39016392;-85
2021/07/24 03:07:30;;;;;;;;;;;19.20;99.90;;;;;;5;36015629;39017159;-85
2021/07/24 03:10:42;;;;;;;;;;;19.10;99.90;;;;;;5;36014684;39017874;-86
2021/07/24 03:13:55;;;;;;;;;;;19.20;99.90;;;;;;5;36013619;39014358;-87
2021/07/24 03:17:05;;;;;;;;;;;19.20;99.90;;;;;;5;36014250;39019199;-85
2021/07/24 03:20:17;;;;;;;;;;;19.10;99.90;;;;;;5;36013719;39015489;-86
2021/07/24 03:23:30;;;;;;;;;;;19.10;99.90;;;;;;5;36014533;39015693;-86
2021/07/24 03:26:43;;;;;;;;;;;19.10;99.90;;;;;;5;36014024;39014931;-86
2021/07/24 03:29:52;;;;;;;;;;;19.10;99.90;;;;;;5;36014787;39015343;-88
2021/07/24 03:33:06;;;;;;;;;;;19.10;99.90;;;;;;5;36012994;39766292;-86
2021/07/24 03:36:19;;;;;;;;;;;19.10;99.90;;;;;;5;36013077;39016324;-87
2021/07/24 03:39:32;;;;;;;;;;;19.00;99.90;;;;;;5;36014254;39015097;-87
2021/07/24 03:42:41;;;;;;;;;;;19.00;99.90;;;;;;5;36013696;39015320;-86
2021/07/24 03:45:54;;;;;;;;;;;19.00;99.90;;;;;;5;36014411;39015586;-85
2021/07/24 03:49:07;;;;;;;;;;;18.90;99.90;;;;;;5;36015563;39015601;-87
2021/07/24 03:52:19;;;;;;;;;;;18.90;99.90;;;;;;5;36013743;39015691;-88
2021/07/24 03:55:29;;;;;;;;;;;18.90;99.90;;;;;;5;36013619;39015763;-86
2021/07/24 03:58:42;;;;;;;;;;;18.90;99.90;;;;;;5;36014044;39016043;-86
2021/07/24 04:01:57;;;;;;;;;;;18.90;99.90;;;;;;5;36014343;39016626;-83
2021/07/24 04:05:11;;;;;;;;;;;18.90;99.90;;;;;;5;36018384;39765203;-86
2021/07/24 04:08:21;;;;;;;;;;;18.90;99.90;;;;;;5;36013474;39015450;-87
2021/07/24 04:11:35;;;;;;;;;;;18.90;99.90;;;;;;5;36013426;39016527;-86
2021/07/24 04:14:47;;;;;;;;;;;18.90;99.90;;;;;;5;36013090;39014991;-86
2021/07/24 04:18:00;;;;;;;;;;;18.90;99.90;;;;;;5;36012720;39016102;-84
2021/07/24 04:21:10;;;;;;;;;;;19.00;99.90;;;;;;5;36013844;39015990;-84
2021/07/24 04:24:22;;;;;;;;;;;19.10;99.90;;;;;;5;36013996;39016236;-85
2021/07/24 04:27:35;;;;;;;;;;;19.10;99.90;;;;;;5;36014202;39015269;-85
2021/07/24 04:30:48;;;;;;;;;;;19.10;99.90;;;;;;5;36014356;39015225;-85
2021/07/24 04:33:57;;;;;;;;;;;19.20;99.90;;;;;;5;36014460;39015446;-85
2021/07/24 04:37:11;;;;;;;;;;;19.20;99.90;;;;;;5;36012813;39767284;-85
2021/07/24 04:40:24;;;;;;;;;;;19.30;99.90;;;;;;5;36013333;39015732;-86
2021/07/24 04:43:37;;;;;;;;;;;19.40;99.90;;;;;;5;36014397;39014857;-85
2021/07/24 04:46:46;;;;;;;;;;;19.60;99.90;;;;;;5;36013030;39015602;-86
2021/07/24 04:49:59;;;;;;;;;;;19.80;99.90;;;;;;5;36014246;39015453;-86
2021/07/24 04:53:12;;;;;;;;;;;20.00;99.90;;;;;;5;36013617;39014966;-85
2021/07/24 04:56:25;;;;;;;;;;;20.20;99.90;;;;;;5;36013401;39016372;-86
2021/07/24 04:59:36;;;;;;;;;;;20.30;99.90;;;;;;5;36014705;39015925;-86
2021/07/24 05:02:49;;;;;;;;;;;20.40;99.90;;;;;;5;36013433;39017975;-85
2021/07/24 05:06:03;;;;;;;;;;;20.50;99.90;;;;;;5;36013576;39014784;-86
2021/07/24 05:09:18;;;;;;;;;;;20.70;99.90;;;;;;5;36014630;39764735;-86
2021/07/24 05:12:27;;;;;;;;;;;20.90;99.90;;;;;;5;36015217;39015157;-85
2021/07/24 05:15:40;;;;;;;;;;;20.90;99.90;;;;;;5;36013049;39015033;-86
2021/07/24 05:18:52;;;;;;;;;;;20.90;99.90;;;;;;5;36012864;39016741;-86
2021/07/24 05:22:06;;;;;;;;;;;20.90;99.90;;;;;;5;36014748;39016399;-85
2021/07/24 05:25:15;;;;;;;;;;;20.90;99.90;;;;;;5;36014595;39015572;-86
2021/07/24 05:28:28;;;;;;;;;;;21.00;99.90;;;;;;5;36014778;39016042;-86
2021/07/24 05:31:43;;;;;;;;;;;21.00;99.90;;;;;;5;36013979;39015487;-86
2021/07/24 05:34:56;;;;;;;;;;;21.00;99.90;;;;;;5;36013918;39015464;-85
2021/07/24 05:38:05;;;;;;;;;;;21.00;99.90;;;;;;5;36014238;39014836;-85
2021/07/24 05:41:19;;;;;;;;;;;21.00;99.90;;;;;;5;36013362;39765555;-85
2021/07/24 05:44:32;;;;;;;;;;;21.00;99.90;;;;;;5;36013403;39015464;-85
2021/07/24 05:47:45;;;;;;;;;;;21.00;99.90;;;;;;5;36012608;39016605;-85
2021/07/24 05:50:55;;;;;;;;;;;21.10;99.90;;;;;;5;36013318;39015275;-86
2021/07/24 05:54:07;;;;;;;;;;;21.10;99.90;;;;;;5;36013700;39016982;-86
2021/07/24 05:57:20;;;;;;;;;;;21.20;99.90;;;;;;5;36012605;39015241;-86
2021/07/24 06:00:33;;;;;;;;;;;21.30;99.90;;;;;;5;36013656;39014559;-86
2021/07/24 06:03:43;;;;;;;;;;;21.20;99.90;;;;;;5;36013236;39016196;-86
2021/07/24 06:06:55;;;;;;;;;;;21.30;99.90;;;;;;5;36013943;39015114;-85
2021/07/24 06:10:08;;;;;;;;;;;21.20;99.90;;;;;;5;36012926;39015236;-84
2021/07/24 06:13:23;;;;;;;;;;;21.20;99.90;;;;;;5;36014485;39764148;-87
2021/07/24 06:16:35;;;;;;;;;;;21.00;99.90;;;;;;5;36013225;39015703;-89
2021/07/24 06:19:48;;;;;;;;;;;21.00;99.90;;;;;;5;36012872;39016067;-88
2021/07/24 06:23:01;;;;;;;;;;;21.00;99.90;;;;;;5;36013071;39015820;-88
2021/07/24 06:26:13;;;;;;;;;;;21.00;99.90;;;;;;5;36012817;39015743;-86
2021/07/24 06:29:23;;;;;;;;;;;21.20;99.90;;;;;;5;36013193;39015372;-87
2021/07/24 06:32:36;;;;;;;;;;;21.10;99.90;;;;;;5;36013271;39015596;-87
2021/07/24 06:35:48;;;;;;;;;;;21.10;99.90;;;;;;5;36013460;39015987;-87
2021/07/24 06:39:01;;;;;;;;;;;21.10;99.90;;;;;;5;36014095;39014859;-87
2021/07/24 06:42:11;;;;;;;;;;;21.10;99.90;;;;;;5;36013189;39015001;-86
2021/07/24 06:45:25;;;;;;;;;;;21.20;99.90;;;;;;5;36013275;39764561;-85
2021/07/24 06:48:37;;;;;;;;;;;21.30;99.90;;;;;;5;36013333;39016258;-87
2021/07/24 06:51:50;;;;;;;;;;;21.50;99.90;;;;;;5;36012976;39015847;-86
2021/07/24 06:55:00;;;;;;;;;;;21.70;99.90;;;;;;5;36014903;39014867;-87
2021/07/24 06:58:12;;;;;;;;;;;22.00;99.90;;;;;;5;36013037;39015085;-86
2021/07/24 07:02:05;;;;;;;;;;;22.20;99.90;;;;;;5;36013452;39015744;-87
2021/07/24 07:05:18;;;;;;;;;;;22.60;99.90;;;;;;5;36013740;39015514;-87
2021/07/24 07:08:28;;;;;;;;;;;22.90;99.90;;;;;;5;36012879;39015293;-87
2021/07/24 07:11:40;;;;;;;;;;;23.20;99.90;;;;;;5;36012979;39015196;-87
2021/07/24 07:14:53;;;;;;;;;;;23.40;99.90;;;;;;5;36012925;39016108;-86
2021/07/24 07:18:07;;;;;;;;;;;23.60;99.90;;;;;;5;36013558;39764695;-88
2021/07/24 07:21:17;;;;;;;;;;;23.80;99.20;;;;;;5;36013994;39016757;-86
2021/07/24 07:24:29;;;;;;;;;;;23.80;97.60;;;;;;5;36012890;39016249;-87
2021/07/24 07:27:45;;;;;;;;;;;23.90;97.30;;;;;;5;36013384;39015200;-87
2021/07/24 07:30:58;;;;;;;;;;;24.20;97.70;;;;;;5;36013774;39014971;-86
2021/07/24 07:34:07;;;;;;;;;;;24.40;96.50;;;;;;5;36013456;39015940;-86
2021/07/24 07:37:20;;;;;;;;;;;24.70;96.40;;;;;;5;36013654;39015981;-84
2021/07/24 07:40:37;;;;;;;;;;;24.90;95.50;;;;;;5;36012793;39015590;-87
2021/07/24 07:43:50;;;;;;;;;;;25.10;95.50;;;;;;5;36012885;39014859;-86
2021/07/24 07:46:59;;;;;;;;;;;25.10;95.20;;;;;;5;36013271;39015165;-87
2021/07/24 07:50:14;;;;;;;;;;;25.00;95.10;;;;;;5;36013111;39764336;-87
2021/07/24 07:53:26;;;;;;;;;;;24.90;95.30;;;;;;5;36012852;39016254;-85
2021/07/24 07:56:39;;;;;;;;;;;24.90;94.50;;;;;;5;36013209;39015094;-86
2021/07/24 07:59:49;;;;;;;;;;;25.00;94.40;;;;;;5;36014557;39014543;-86
2021/07/24 08:03:01;;;;;;;;;;;25.10;93.90;;;;;;5;36012874;39016020;-87
2021/07/24 08:06:15;;;;;;;;;;;25.20;93.50;;;;;;5;36012482;39016152;-88
2021/07/24 08:09:28;;;;;;;;;;;25.30;93.40;;;;;;5;36013209;39015218;-86
2021/07/24 08:12:37;;;;;;;;;;;25.20;93.20;;;;;;5;36013552;39015157;-85
2021/07/24 08:15:50;;;;;;;;;;;25.40;93.70;;;;;;5;36013809;39015986;-86
2021/07/24 08:19:03;;;;;;;;;;;25.60;93.40;;;;;;5;36013337;39014948;-87
2021/07/24 08:22:17;;;;;;;;;;;25.70;93.10;;;;;;5;36013351;39764632;-87
2021/07/24 08:25:27;;;;;;;;;;;25.80;92.70;;;;;;5;36015114;39015462;-86
2021/07/24 08:28:40;;;;;;;;;;;25.60;93.00;;;;;;5;36013110;39016099;-86
2021/07/24 08:31:52;;;;;;;;;;;25.60;93.10;;;;;;5;36012858;39014706;-87
2021/07/24 08:35:05;;;;;;;;;;;25.80;92.70;;;;;;5;36014139;39015133;-86
2021/07/24 08:38:16;;;;;;;;;;;25.80;92.70;;;;;;5;36013042;39014851;-87
2021/07/24 08:41:28;;;;;;;;;;;25.40;92.20;;;;;;5;36012988;39015730;-86
2021/07/24 08:44:41;;;;;;;;;;;25.40;93.40;;;;;;5;36012667;39015931;-87
2021/07/24 08:47:54;;;;;;;;;;;25.80;92.90;;;;;;5;36012891;39015733;-87
2021/07/24 08:51:04;;;;;;;;;;;26.40;91.80;;;;;;5;36018373;39014983;-88
2021/07/24 08:54:19;;;;;;;;;;;27.30;91.00;;;;;;5;36012755;39764894;-87
2021/07/24 08:57:36;;;;;;;;;;;28.10;86.00;;;;;;5;36013408;39015955;-86
2021/07/24 09:00:49;;;;;;;;;;;28.60;84.50;;;;;;5;36013627;39014394;-84
2021/07/24 09:04:02;;;;;;;;;;;29.70;82.30;;;;;;5;36015033;39015218;-84
2021/07/24 09:07:15;;;;;;;;;;;30.80;77.50;;;;;;5;36013841;39016565;-85
2021/07/24 09:10:28;;;;;;;;;;;31.80;71.90;;;;;;5;36013178;39015035;-85
2021/07/24 09:13:41;;;;;;;;;;;32.90;70.00;;;;;;5;36013061;39015668;-85
2021/07/24 09:16:50;;;;;;;;;;;33.80;67.30;;;;;;5;36014753;39016826;-85
2021/07/24 09:20:04;;;;;;;;;;;34.30;63.10;;;;;;5;36013646;39015280;-85
2021/07/24 09:23:23;;;;;;;;;;;34.90;61.10;;;;;;5;36013888;39014957;-85
2021/07/24 09:26:37;;;;;;;;;;;35.60;60.00;;;;;;5;36013946;39766635;-85
2021/07/24 09:29:47;;;;;;;;;;;36.70;57.80;;;;;;5;36013111;39016680;-85
2021/07/24 09:33:00;;;;;;;;;;;38.00;54.60;;;;;;5;36014143;39016386;-86
2021/07/24 09:36:28;;;;;;;;;;;39.30;51.60;;;;;;5;36014318;39015886;-85
2021/07/24 09:39:41;;;;;;;;;;;40.40;47.30;;;;;;5;36014096;39018339;-85
2021/07/24 09:42:51;;;;;;;;;;;39.40;47.30;;;;;;5;36014367;39015530;-85
2021/07/24 09:46:14;;;;;;;;;;;38.30;49.50;;;;;;5;36013543;39015808;-84
2021/07/24 09:49:33;;;;;;;;;;;38.00;48.70;;;;;;5;36014152;39016123;-85
2021/07/24 09:52:46;;;;;;;;;;;37.70;49.40;;;;;;5;36012953;39015123;-85
2021/07/24 09:55:55;;;;;;;;;;;38.60;49.00;;;;;;5;36013685;39016276;-86
2021/07/24 09:59:22;;;;;;;;;;;39.80;46.40;;;;;;5;36012722;39767662;-84
2021/07/24 10:02:35;;;;;;;;;;;41.30;44.60;;;;;;5;36013381;39016312;-83
2021/07/24 10:05:48;;;;;;;;;;;42.60;42.30;;;;;;5;36013465;39016425;-84
2021/07/24 10:08:57;;;;;;;;;;;43.10;42.00;;;;;;5;36014293;39016252;-84
2021/07/24 10:12:13;;;;;;;;;;;43.00;40.70;;;;;;5;36013785;39015965;-84
2021/07/24 10:15:28;;;;;;;;;;;42.50;40.70;;;;;;5;36013323;39014710;-84
2021/07/24 10:18:41;;;;;;;;;;;42.80;40.60;;;;;;5;36013816;39015734;-83
2021/07/24 10:21:52;;;;;;;;;;;43.80;40.30;;;;;;5;36015097;39015271;-84
2021/07/24 10:29:14;;;;;;;;;;;45.50;36.40;;;;;;176200;28;39023517;-86
2021/07/24 10:32:28;;;;;;;;;;;46.20;36.30;;;;;;5;36018608;39025487;-86
2021/07/24 10:35:40;;;;;;;;;;;46.30;36.70;;;;;;5;36017663;39021878;-86
2021/07/24 10:38:57;;;;;;;;;;;46.40;36.00;;;;;;5;36018857;39021581;-86
2021/07/24 10:42:09;;;;;;;;;;;45.70;34.70;;;;;;5;36018526;39020304;-85
2021/07/24 10:45:34;;;;;;;;;;;45.10;35.70;;;;;;5;36017615;39019077;-85
2021/07/24 10:48:46;;;;;;;;;;;45.00;35.80;;;;;;5;36017784;39019496;-85
2021/07/24 10:51:58;;;;;;;;;;;44.80;36.90;;;;;;5;36017993;39020392;-85
2021/07/24 10:55:14;;;;;;;;;;;44.60;35.80;;;;;;5;36017561;39020645;-85
2021/07/24 10:58:25;;;;;;;;;;;44.00;35.40;;;;;;5;36017640;39019997;-85
2021/07/24 11:01:46;;;;;;;;;;;42.70;36.80;;;;;;5;36020209;39021939;-86
2021/07/24 11:05:18;;;;;;;;;;;42.40;37.60;;;;;;5;36019586;39021184;-86
2021/07/24 11:08:48;;;;;;;;;;;42.10;38.40;;;;;;5;36020987;39021810;-87
2021/07/24 11:12:03;;;;;;;;;;;41.20;39.40;;;;;;5;36017877;39021865;-87
2021/07/24 11:15:34;;;;;;;;;;;40.90;39.50;;;;;;5;36018897;39020019;-88
2021/07/24 11:19:06;;;;;;;;;;;41.20;40.10;;;;;;5;36018368;39019699;-88
2021/07/24 11:22:18;;;;;;;;;;;41.50;38.30;;;;;;5;36017574;39020288;-88
2021/07/24 11:25:30;;;;;;;;;;;40.90;38.30;;;;;;5;36019401;39021710;-88
2021/07/24 11:28:45;;;;;;;;;;;41.00;38.20;;;;;;5;36018908;39020086;-88
2021/07/24 11:32:02;;;;;;;;;;;40.30;39.30;;;;;;5;36019155;39020442;-88
2021/07/24 11:35:14;;;;;;;;;;;40.20;39.90;;;;;;5;36018968;39022151;-87
2021/07/24 11:38:23;;;;;;;;;;;40.60;40.00;;;;;;5;36019223;39021470;-87
2021/07/24 11:41:35;;;;;;;;;;;41.10;39.30;;;;;;5;36018461;39021436;-86
2021/07/24 11:44:48;;;;;;;;;;;41.00;38.80;;;;;;5;36017148;39020062;-86
2021/07/24 11:48:11;;;;;;;;;;;40.10;39.70;;;;;;5;36018675;39020892;-86
2021/07/24 11:54:49;;;;;;;;;;;39.40;39.80;;;;;;5;36017867;39044846;-87
2021/07/24 11:58:09;;;;;;;;;;;39.10;40.80;;;;;;5;36016605;39019786;-87
2021/07/24 12:01:21;;;;;;;;;;;38.40;42.00;;;;;;5;36019158;39020153;-87
2021/07/24 12:04:30;;;;;;;;;;;37.50;42.40;;;;;;5;36018337;39023195;-87
2021/07/24 12:07:42;;;;;;;;;;;36.70;43.70;;;;;;5;36019099;39020233;-87
2021/07/24 12:10:54;;;;;;;;;;;35.80;44.70;;;;;;5;36019704;39021012;-87
2021/07/24 12:14:06;;;;;;;;;;;35.50;45.70;;;;;;5;36017446;39020371;-90
2021/07/24 12:17:32;;;;;;;;;;;35.30;46.10;;;;;;5;36018112;39019864;-86
2021/07/24 12:20:45;;;;;;;;;;;35.40;46.30;;;;;;5;36016739;39019707;-86
2021/07/24 12:24:00;;;;;;;;;;;36.50;44.50;;;;;;5;36017536;39019052;-85
2021/07/24 12:27:15;;;;;;;;;;;36.20;44.80;;;;;;5;36017326;39019728;-87
2021/07/24 12:30:25;;;;;;;;;;;36.40;44.70;;;;;;5;36017455;39019772;-88
2021/07/24 12:33:44;;;;;;;;;;;36.20;44.00;;;;;;5;36018207;39019668;-89
2021/07/24 12:36:58;;;;;;;;;;;36.00;44.30;;;;;;5;36018586;39022029;-86
2021/07/24 12:40:19;;;;;;;;;;;35.60;45.70;;;;;;5;36018305;39022474;-87
2021/07/24 12:43:28;;;;;;;;;;;35.60;46.30;;;;;;5;36017056;39020359;-85
2021/07/24 12:46:41;;;;;;;;;;;35.10;46.30;;;;;;5;36016239;39017759;-85
2021/07/24 12:49:53;;;;;;;;;;;34.50;47.50;;;;;;5;36015633;39019832;-85
2021/07/24 12:53:04;;;;;;;;;;;34.80;46.60;;;;;;5;36015691;39018562;-88
2021/07/24 12:56:20;;;;;;;;;;;34.90;46.70;;;;;;5;36016716;39021328;-85
2021/07/24 12:59:32;;;;;;;;;;;34.70;47.40;;;;;;5;36018615;39021334;-87
2021/07/24 13:02:45;;;;;;;;;;;34.20;47.80;;;;;;5;36016730;39019426;-89
2021/07/24 13:05:56;;;;;;;;;;;33.70;49.00;;;;;;5;36017058;39020477;-89
2021/07/24 13:09:05;;;;;;;;;;;33.20;50.20;;;;;;5;36018431;39020715;-88
2021/07/24 13:12:17;;;;;;;;;;;32.80;50.80;;;;;;5;36019371;39020818;-86
2021/07/24 13:15:29;;;;;;;;;;;32.60;53.00;;;;;;5;36020434;39020455;-87
2021/07/24 13:18:40;;;;;;;;;;;32.40;52.70;;;;;;5;36016583;39019778;-88
2021/07/24 13:21:49;;;;;;;;;;;32.10;53.60;;;;;;5;36018130;39022447;-84
2021/07/24 13:25:07;;;;;;;;;;;31.90;53.10;;;;;;5;36018149;39019932;-85
2021/07/24 13:28:19;;;;;;;;;;;31.90;54.00;;;;;;5;36018709;39019592;-86
2021/07/24 13:31:31;;;;;;;;;;;32.00;53.80;;;;;;5;36017724;39020168;-84
2021/07/24 13:34:40;;;;;;;;;;;32.30;53.30;;;;;;5;36017301;39020603;-84
2021/07/24 13:37:52;;;;;;;;;;;32.60;53.30;;;;;;5;36017952;39021309;-85
2021/07/24 13:41:03;;;;;;;;;;;32.90;52.30;;;;;;5;36016853;39019815;-85
2021/07/24 13:44:15;;;;;;;;;;;32.90;51.70;;;;;;5;36018840;39019466;-85
2021/07/24 13:47:24;;;;;;;;;;;32.90;51.60;;;;;;5;36017004;39019595;-85
2021/07/24 13:50:36;;;;;;;;;;;32.90;53.70;;;;;;5;36018636;39020838;-84
2021/07/24 13:53:48;;;;;;;;;;;32.50;51.30;;;;;;5;36017707;39020445;-85
2021/07/24 13:56:59;;;;;;;;;;;32.20;53.20;;;;;;5;36017278;39020268;-86
2021/07/24 14:00:09;;;;;;;;;;;32.20;53.60;;;;;;5;36018717;39020344;-86
2021/07/24 14:03:23;;;;;;;;;;;32.70;53.30;;;;;;5;36018467;39020509;-84
2021/07/24 14:06:35;;;;;;;;;;;33.20;51.10;;;;;;5;36017216;39019848;-85
2021/07/24 14:09:46;;;;;;;;;;;33.60;49.50;;;;;;5;36016278;39020428;-86
2021/07/24 14:12:55;;;;;;;;;;;33.90;49.80;;;;;;5;36017246;39019886;-86
2021/07/24 14:16:11;;;;;;;;;;;33.90;50.80;;;;;;5;36016622;39019649;-86
2021/07/24 14:19:23;;;;;;;;;;;33.70;51.00;;;;;;5;36017182;39019212;-88
2021/07/24 14:22:34;;;;;;;;;;;33.80;51.50;;;;;;5;36017495;39020617;-87
2021/07/24 14:25:43;;;;;;;;;;;34.00;51.40;;;;;;5;36017683;39021282;-86
2021/07/24 14:28:56;;;;;;;;;;;34.30;51.30;;;;;;5;36018608;39019842;-87
2021/07/24 14:32:08;;;;;;;;;;;34.30;51.70;;;;;;5;36017583;39020111;-87
2021/07/24 14:35:19;;;;;;;;;;;34.50;51.00;;;;;;5;36018647;39019365;-85
2021/07/24 14:38:28;;;;;;;;;;;34.60;51.20;;;;;;5;36018947;39020675;-90
2021/07/24 14:41:40;;;;;;;;;;;34.30;51.70;;;;;;5;36016600;39021577;-88
2021/07/24 14:44:53;;;;;;;;;;;33.90;52.60;;;;;;5;36017950;39019872;-87
2021/07/24 14:48:05;;;;;;;;;;;33.40;53.00;;;;;;5;36017512;39020355;-87
2021/07/24 14:51:20;;;;;;;;;;;32.90;54.10;;;;;;5;36018414;39020702;-86
2021/07/24 14:54:32;;;;;;;;;;;32.60;55.70;;;;;;5;36016514;39019905;-88
2021/07/24 14:57:44;;;;;;;;;;;32.10;56.20;;;;;;5;36017432;39019753;-86
2021/07/24 15:00:55;;;;;;;;;;;31.70;57.60;;;;;;5;36016763;39019334;-89
2021/07/24 15:04:04;;;;;;;;;;;31.50;59.00;;;;;;5;36017847;39021089;-86
2021/07/24 15:07:16;;;;;;;;;;;31.50;58.90;;;;;;5;36016281;39019819;-87
2021/07/24 15:10:28;;;;;;;;;;;31.30;58.50;;;;;;5;36018913;39021428;-87
2021/07/24 15:13:40;;;;;;;;;;;30.90;60.20;;;;;;5;36016548;39020226;-89
2021/07/24 15:16:48;;;;;;;;;;;30.60;61.40;;;;;;5;36016588;39019854;-86
2021/07/24 15:20:00;;;;;;;;;;;30.20;61.60;;;;;;5;36016231;39018948;-84
2021/07/24 15:23:12;;;;;;;;;;;29.50;57.20;;;;;;5;36017037;39018810;-86
2021/07/24 15:26:23;;;;;;;;;;;28.90;56.10;;;;;;5;36015800;39019837;-89
2021/07/24 15:29:32;;;;;;;;;;;28.40;59.10;;;;;;5;36015365;39019211;-88
2021/07/24 15:32:44;;;;;;;;;;;27.60;63.70;;;;;;5;36016398;39018582;-85
2021/07/24 15:35:56;;;;;;;;;;;27.20;67.00;;;;;;5;36018396;39019235;-86
2021/07/24 15:39:07;;;;;;;;;;;26.80;67.80;;;;;;5;36017272;39022140;-85
2021/07/24 15:42:16;;;;;;;;;;;26.20;68.20;;;;;;5;36017439;39020039;-87
2021/07/24 15:45:28;;;;;;;;;;;26.00;69.40;;;;;;5;36017154;39019341;-87
2021/07/24 15:48:40;;;;;;;;;;;25.70;69.00;;;;;;5;36017058;39020198;-87
2021/07/24 15:51:53;;;;;;;;;;;25.60;69.70;;;;;;5;36017606;39020612;-88
2021/07/24 15:55:03;;;;;;;;;;;25.40;71.90;;;;;;5;36016351;39019572;-89
2021/07/24 15:58:15;;;;;;;;;;;25.10;73.00;;;;;;5;36017051;39022012;-86
2021/07/24 16:01:28;;;;;;;;;;;24.80;74.70;;;;;;5;36016574;39020139;-86
2021/07/24 16:04:42;;;;;;;;;;;24.50;76.50;;;;;;5;36016765;39770277;-86
2021/07/24 16:07:52;;;;;;;;;;;24.40;78.00;;;;;;5;36018510;39019398;-84
2021/07/24 16:11:05;;;;;;;;;;;24.10;80.70;;;;;;5;36016661;39020353;-86
2021/07/24 16:14:17;;;;;;;;;;;23.80;82.10;;;;;;5;36017198;39019046;-87
2021/07/24 16:17:30;;;;;;;;;;;23.40;83.20;;;;;;5;36017164;39019098;-87
2021/07/24 16:20:40;;;;;;;;;;;23.20;86.10;;;;;;5;36015814;39019631;-85
2021/07/24 16:23:52;;;;;;;;;;;22.90;89.50;;;;;;5;36018177;39022787;-87
2021/07/24 16:27:05;;;;;;;;;;;22.70;90.70;;;;;;5;36018361;39020322;-87
2021/07/24 16:30:18;;;;;;;;;;;21.90;96.30;;;;;;5;36021046;39021187;-89
2021/07/24 16:33:28;;;;;;;;;;;20.00;99.90;;;;;;5;36021591;39024051;-90
2021/07/24 16:36:43;;;;;;;;;;;16.90;99.90;;;;;;5;36021206;39773674;-89
2021/07/24 16:39:55;;;;;;;;;;;16.80;99.90;;;;;;5;36018480;39023524;-89
2021/07/24 16:43:08;;;;;;;;;;;17.10;99.90;;;;;;5;36021045;39023218;-90
2021/07/24 16:46:18;;;;;;;;;;;17.40;99.90;;;;;;5;36019422;39021183;-90
2021/07/24 16:49:31;;;;;;;;;;;17.30;99.90;;;;;;5;36018730;39021406;-87
2021/07/24 16:52:43;;;;;;;;;;;17.20;99.90;;;;;;5;36016877;39021861;-89
2021/07/24 16:55:56;;;;;;;;;;;17.30;99.90;;;;;;5;36017838;39023336;-88
2021/07/24 16:59:06;;;;;;;;;;;17.30;99.90;;;;;;5;36020189;39021663;-88
2021/07/24 17:02:21;;;;;;;;;;;17.20;99.90;;;;;;5;36015265;39019989;-89
2021/07/24 17:05:35;;;;;;;;;;;17.40;99.90;;;;;;5;36014383;39017829;-90
2021/07/24 17:08:50;;;;;;;;;;;17.40;99.90;;;;;;5;36017523;39771216;-88
2021/07/24 17:11:59;;;;;;;;;;;17.30;99.90;;;;;;5;36018810;39022807;-90
2021/07/24 17:15:12;;;;;;;;;;;17.40;99.90;;;;;;5;36019783;39027216;-87
2021/07/24 17:18:25;;;;;;;;;;;17.40;99.90;;;;;;5;36018035;39022080;-88
2021/07/24 17:21:39;;;;;;;;;;;17.30;99.90;;;;;;5;36018442;39021494;-87
2021/07/24 17:24:49;;;;;;;;;;;17.50;99.90;;;;;;5;36019194;39021494;-87
2021/07/24 17:28:02;;;;;;;;;;;17.40;99.90;;;;;;5;36018351;39021291;-87
2021/07/24 17:31:15;;;;;;;;;;;17.40;99.90;;;;;;5;36021726;39021789;-88
2021/07/24 17:34:28;;;;;;;;;;;17.50;99.90;;;;;;5;36020865;39022550;-87
2021/07/24 17:37:38;;;;;;;;;;;17.50;99.90;;;;;;5;36017379;39020931;-87
2021/07/24 17:40:52;;;;;;;;;;;17.70;99.90;;;;;;5;36018062;39772620;-87
2021/07/24 17:44:05;;;;;;;;;;;17.80;99.90;;;;;;5;36019473;39022103;-87
2021/07/24 17:47:19;;;;;;;;;;;18.00;99.90;;;;;;5;36019859;39020704;-86
2021/07/24 17:50:31;;;;;;;;;;;18.20;99.90;;;;;;5;36016939;39020645;-87
2021/07/24 17:53:44;;;;;;;;;;;18.20;99.90;;;;;;5;36019446;39019880;-86
2021/07/24 17:56:57;;;;;;;;;;;18.20;99.90;;;;;;5;36018399;39023428;-87
2021/07/24 18:00:11;;;;;;;;;;;17.80;99.90;;;;;;5;36019074;39022558;-86
2021/07/24 18:03:21;;;;;;;;;;;17.50;99.90;;;;;;5;36017727;39021662;-87
2021/07/24 18:06:34;;;;;;;;;;;17.50;99.90;;;;;;5;36016948;39020797;-86
2021/07/24 18:09:46;;;;;;;;;;;17.40;99.90;;;;;;5;36018833;39021389;-86
2021/07/24 18:13:00;;;;;;;;;;;17.30;99.90;;;;;;5;36018136;39771930;-87
2021/07/24 18:16:11;;;;;;;;;;;17.10;99.90;;;;;;5;36017660;39021311;-86
2021/07/24 18:19:24;;;;;;;;;;;17.30;99.90;;;;;;5;36018998;39020390;-87
2021/07/24 18:22:36;;;;;;;;;;;17.30;99.90;;;;;;5;36019525;39023174;-87
2021/07/24 18:25:49;;;;;;;;;;;17.40;99.90;;;;;;5;36016302;39020369;-86
2021/07/24 18:28:59;;;;;;;;;;;17.50;99.90;;;;;;5;36018605;39021000;-87
2021/07/24 18:32:11;;;;;;;;;;;17.60;99.90;;;;;;5;36020072;39020986;-88
2021/07/24 18:35:25;;;;;;;;;;;17.70;99.90;;;;;;5;36017731;39020533;-86
2021/07/24 18:38:38;;;;;;;;;;;17.70;99.90;;;;;;5;36017546;39019393;-85
2021/07/24 18:41:48;;;;;;;;;;;17.60;99.90;;;;;;5;36017785;39019225;-87
2021/07/24 18:45:04;;;;;;;;;;;17.70;99.90;;;;;;5;36018400;39768610;-87
2021/07/24 18:48:16;;;;;;;;;;;17.70;99.90;;;;;;5;36017199;39019704;-88
2021/07/24 18:51:29;;;;;;;;;;;17.80;99.90;;;;;;5;36018347;39020634;-86
2021/07/24 18:54:39;;;;;;;;;;;17.70;99.90;;;;;;5;36018080;39021144;-86
2021/07/24 18:57:51;;;;;;;;;;;17.60;99.90;;;;;;5;36017053;39020640;-86
2021/07/24 19:01:11;;;;;;;;;;;17.50;99.90;;;;;;5;36018027;39019671;-86
2021/07/24 19:04:24;;;;;;;;;;;17.50;99.90;;;;;;5;36017536;39022036;-87
2021/07/24 19:07:38;;;;;;;;;;;17.70;99.90;;;;;;5;36017101;39020311;-87
2021/07/24 19:10:51;;;;;;;;;;;17.70;99.90;;;;;;5;36016964;39020422;-86
2021/07/24 19:14:04;;;;;;;;;;;17.60;99.90;;;;;;5;36017690;39020525;-85
2021/07/24 19:17:18;;;;;;;;;;;17.70;99.90;;;;;;5;36017270;39768627;-86
2021/07/24 19:20:28;;;;;;;;;;;17.70;99.90;;;;;;5;36018598;39020400;-86
2021/07/24 19:23:41;;;;;;;;;;;17.70;99.90;;;;;;5;36019625;39019746;-85
2021/07/24 19:26:53;;;;;;;;;;;17.70;99.90;;;;;;5;36017329;39019782;-85
2021/07/24 19:30:06;;;;;;;;;;;17.60;99.90;;;;;;5;36017354;39019689;-86
2021/07/24 19:33:16;;;;;;;;;;;17.60;99.90;;;;;;5;36018743;39020428;-87
2021/07/24 19:36:29;;;;;;;;;;;17.60;99.90;;;;;;5;36016663;39020900;-87
2021/07/24 19:39:41;;;;;;;;;;;17.80;99.90;;;;;;5;36015649;39018051;-87
2021/07/24 19:42:54;;;;;;;;;;;17.70;99.90;;;;;;5;36016788;39019108;-87
2021/07/24 19:46:04;;;;;;;;;;;17.60;99.90;;;;;;5;36017226;39020064;-87
2021/07/24 19:49:18;;;;;;;;;;;17.70;99.90;;;;;;5;36018300;39770369;-87
2021/07/24 19:52:32;;;;;;;;;;;17.80;99.90;;;;;;5;36020027;39021310;-87
2021/07/24 19:55:44;;;;;;;;;;;17.70;99.90;;;;;;5;36018237;39019550;-86
2021/07/24 19:58:54;;;;;;;;;;;17.60;99.90;;;;;;5;36019078;39021049;-88
2021/07/24 20:02:07;;;;;;;;;;;17.50;99.90;;;;;;5;36017785;39020026;-87
2021/07/24 20:05:24;;;;;;;;;;;17.60;99.90;;;;;;5;36016924;39021011;-87
2021/07/24 20:08:37;;;;;;;;;;;17.70;99.90;;;;;;5;36018776;39020795;-87
2021/07/24 20:11:46;;;;;;;;;;;17.60;99.90;;;;;;5;36018297;39020726;-87
2021/07/24 20:14:59;;;;;;;;;;;17.60;99.90;;;;;;5;36018094;39019670;-87
2021/07/24 20:18:12;;;;;;;;;;;17.70;99.90;;;;;;5;36016443;39019740;-87
2021/07/24 20:21:26;;;;;;;;;;;17.70;99.90;;;;;;5;36018542;39770338;-87
2021/07/24 20:24:37;;;;;;;;;;;17.70;99.90;;;;;;5;36017305;39021466;-87
2021/07/24 20:27:49;;;;;;;;;;;17.70;99.90;;;;;;5;36018080;39020945;-87
2021/07/24 20:31:03;;;;;;;;;;;17.60;99.90;;;;;;5;36017164;39021489;-86
2021/07/24 20:34:17;;;;;;;;;;;17.60;99.90;;;;;;5;36014780;39016542;-87
2021/07/24 20:37:27;;;;;;;;;;;17.50;99.90;;;;;;5;36014593;39018885;-86
2021/07/24 20:40:39;;;;;;;;;;;17.60;99.90;;;;;;5;36018327;39019632;-87
2021/07/24 20:43:52;;;;;;;;;;;17.70;99.90;;;;;;5;36018423;39020997;-87
2021/07/24 20:47:04;;;;;;;;;;;17.80;99.90;;;;;;5;36019868;39020427;-86
2021/07/24 20:50:14;;;;;;;;;;;17.90;99.90;;;;;;5;36018976;39021427;-87
2021/07/24 20:53:28;;;;;;;;;;;18.00;99.90;;;;;;5;36017680;39770574;-87
2021/07/24 20:56:41;;;;;;;;;;;18.00;99.90;;;;;;5;36018535;39022076;-91
2021/07/24 20:59:57;;;;;;;;;;;17.90;99.90;;;;;;5;36022171;39021005;-91
2021/07/24 21:03:07;;;;;;;;;;;17.90;99.90;;;;;;5;36020624;39023209;-90